Terminal Aerodrome Forecast
Issued by NWS Shreveport, LA

Home | Current Version | Previous Version | Text Only | Print | Product List | Glossary On
Versions: 1 2 3 4 5 6 7 8 9 10 11 12 13 14 15 16 17
390
FTUS44 KSHV 221245 AAB
TAFMLU
TAF AMD
KMLU 221245Z 2213/2312 00000KT 6SM BCFG SKC
     FM221500 VRB03KT P6SM SCT035
     FM221800 07004KT P6SM SCT040
     FM230000 05003KT P6SM FEW050
     FM230800 00000KT 4SM BR SKC=

USA.gov is the U.S. government's official web portal to all federal, state and local government web resources and services.